sensor_id;sensor_type;location;lat;lon;timestamp;P1;durP1;ratioP1;P2;durP2;ratioP2
21152;SDS011;10734;44.792;20.482;2022-12-29T00:01:37;51.47;;;25.92;;
21152;SDS011;10734;44.792;20.482;2022-12-29T00:04:04;57.08;;;26.33;;
21152;SDS011;10734;44.792;20.482;2022-12-29T00:06:39;43.22;;;24.30;;
21152;SDS011;10734;44.792;20.482;2022-12-29T00:09:06;44.53;;;24.52;;
21152;SDS011;10734;44.792;20.482;2022-12-29T00:11:32;49.33;;;24.15;;
21152;SDS011;10734;44.792;20.482;2022-12-29T00:13:59;54.65;;;24.58;;
21152;SDS011;10734;44.792;20.482;2022-12-29T00:16:51;48.67;;;24.85;;
21152;SDS011;10734;44.792;20.482;2022-12-29T00:19:17;50.47;;;25.10;;
21152;SDS011;10734;44.792;20.482;2022-12-29T00:22:02;48.67;;;24.48;;
21152;SDS011;10734;44.792;20.482;2022-12-29T00:24:47;45.40;;;24.40;;
21152;SDS011;10734;44.792;20.482;2022-12-29T00:27:19;48.78;;;25.25;;
21152;SDS011;10734;44.792;20.482;2022-12-29T00:30:08;48.05;;;26.02;;
21152;SDS011;10734;44.792;20.482;2022-12-29T00:32:53;48.83;;;24.17;;
21152;SDS011;10734;44.792;20.482;2022-12-29T00:35:39;52.88;;;24.80;;
21152;SDS011;10734;44.792;20.482;2022-12-29T00:38:10;46.88;;;24.08;;
21152;SDS011;10734;44.792;20.482;2022-12-29T00:40:55;49.92;;;22.88;;
21152;SDS011;10734;44.792;20.482;2022-12-29T00:43:40;45.50;;;24.17;;
21152;SDS011;10734;44.792;20.482;2022-12-29T00:46:25;47.45;;;22.63;;
21152;SDS011;10734;44.792;20.482;2022-12-29T00:48:51;46.00;;;24.05;;
21152;SDS011;10734;44.792;20.482;2022-12-29T00:51:36;45.28;;;23.63;;
21152;SDS011;10734;44.792;20.482;2022-12-29T00:54:03;45.45;;;22.90;;
21152;SDS011;10734;44.792;20.482;2022-12-29T00:56:29;39.65;;;22.55;;
21152;SDS011;10734;44.792;20.482;2022-12-29T00:58:59;45.17;;;22.90;;
21152;SDS011;10734;44.792;20.482;2022-12-29T01:01:25;49.35;;;24.13;;
21152;SDS011;10734;44.792;20.482;2022-12-29T01:03:52;40.13;;;21.90;;
21152;SDS011;10734;44.792;20.482;2022-12-29T01:06:25;45.67;;;24.17;;
21152;SDS011;10734;44.792;20.482;2022-12-29T01:08:51;43.90;;;22.70;;
21152;SDS011;10734;44.792;20.482;2022-12-29T01:11:37;41.63;;;20.88;;
21152;SDS011;10734;44.792;20.482;2022-12-29T01:14:03;48.88;;;23.48;;
21152;SDS011;10734;44.792;20.482;2022-12-29T01:16:30;39.63;;;22.05;;
21152;SDS011;10734;44.792;20.482;2022-12-29T01:18:57;43.35;;;22.00;;
21152;SDS011;10734;44.792;20.482;2022-12-29T01:21:23;40.20;;;21.95;;
21152;SDS011;10734;44.792;20.482;2022-12-29T01:23:50;41.55;;;22.30;;
21152;SDS011;10734;44.792;20.482;2022-12-29T01:26:17;39.70;;;22.60;;
21152;SDS011;10734;44.792;20.482;2022-12-29T01:28:43;40.22;;;21.80;;
21152;SDS011;10734;44.792;20.482;2022-12-29T01:31:11;42.28;;;22.25;;
21152;SDS011;10734;44.792;20.482;2022-12-29T01:33:37;44.05;;;22.25;;
21152;SDS011;10734;44.792;20.482;2022-12-29T01:36:05;40.42;;;22.27;;
21152;SDS011;10734;44.792;20.482;2022-12-29T01:38:32;40.72;;;22.35;;
21152;SDS011;10734;44.792;20.482;2022-12-29T01:40:59;36.30;;;20.58;;
21152;SDS011;10734;44.792;20.482;2022-12-29T01:43:42;43.55;;;22.58;;
21152;SDS011;10734;44.792;20.482;2022-12-29T01:46:28;47.90;;;24.17;;
21152;SDS011;10734;44.792;20.482;2022-12-29T01:51:25;43.47;;;22.30;;
21152;SDS011;10734;44.792;20.482;2022-12-29T01:53:53;40.75;;;21.17;;
21152;SDS011;10734;44.792;20.482;2022-12-29T01:56:23;45.90;;;25.00;;
21152;SDS011;10734;44.792;20.482;2022-12-29T01:58:51;56.00;;;24.40;;
21152;SDS011;10734;44.792;20.482;2022-12-29T02:01:19;47.45;;;24.73;;
21152;SDS011;10734;44.792;20.482;2022-12-29T02:03:47;44.58;;;23.23;;
21152;SDS011;10734;44.792;20.482;2022-12-29T02:06:16;41.53;;;22.98;;
21152;SDS011;10734;44.792;20.482;2022-12-29T02:08:43;42.67;;;23.05;;
21152;SDS011;10734;44.792;20.482;2022-12-29T02:11:12;46.25;;;22.75;;
21152;SDS011;10734;44.792;20.482;2022-12-29T02:13:39;43.72;;;23.23;;
21152;SDS011;10734;44.792;20.482;2022-12-29T02:21:52;42.45;;;23.17;;
21152;SDS011;10734;44.792;20.482;2022-12-29T02:47:07;47.20;;;24.45;;
21152;SDS011;10734;44.792;20.482;2022-12-29T02:49:40;38.00;;;18.48;;
21152;SDS011;10734;44.792;20.482;2022-12-29T02:52:14;45.83;;;23.02;;
21152;SDS011;10734;44.792;20.482;2022-12-29T02:54:42;46.38;;;24.13;;
21152;SDS011;10734;44.792;20.482;2022-12-29T02:57:31;45.58;;;25.67;;
21152;SDS011;10734;44.792;20.482;2022-12-29T02:59:57;45.28;;;25.15;;
21152;SDS011;10734;44.792;20.482;2022-12-29T03:24:15;50.85;;;24.65;;
21152;SDS011;10734;44.792;20.482;2022-12-29T03:26:43;44.40;;;24.00;;
21152;SDS011;10734;44.792;20.482;2022-12-29T03:29:12;45.45;;;24.02;;
21152;SDS011;10734;44.792;20.482;2022-12-29T03:31:40;46.08;;;24.60;;
21152;SDS011;10734;44.792;20.482;2022-12-29T03:34:07;41.53;;;23.13;;
21152;SDS011;10734;44.792;20.482;2022-12-29T03:36:44;46.28;;;22.88;;
21152;SDS011;10734;44.792;20.482;2022-12-29T03:39:13;48.50;;;24.75;;
21152;SDS011;10734;44.792;20.482;2022-12-29T03:41:40;44.13;;;22.98;;
21152;SDS011;10734;44.792;20.482;2022-12-29T03:44:07;49.67;;;23.67;;
21152;SDS011;10734;44.792;20.482;2022-12-29T03:46:34;43.75;;;23.23;;
21152;SDS011;10734;44.792;20.482;2022-12-29T03:49:01;46.25;;;22.40;;
21152;SDS011;10734;44.792;20.482;2022-12-29T03:51:28;47.65;;;23.55;;
21152;SDS011;10734;44.792;20.482;2022-12-29T03:53:54;46.38;;;23.55;;
21152;SDS011;10734;44.792;20.482;2022-12-29T03:56:21;42.45;;;21.77;;
21152;SDS011;10734;44.792;20.482;2022-12-29T03:58:47;41.85;;;21.52;;
21152;SDS011;10734;44.792;20.482;2022-12-29T04:01:13;43.95;;;22.27;;
21152;SDS011;10734;44.792;20.482;2022-12-29T04:03:40;42.42;;;22.88;;
21152;SDS011;10734;44.792;20.482;2022-12-29T04:06:07;41.40;;;20.17;;
21152;SDS011;10734;44.792;20.482;2022-12-29T04:08:33;49.47;;;23.73;;
21152;SDS011;10734;44.792;20.482;2022-12-29T04:11:00;111.10;;;44.70;;
21152;SDS011;10734;44.792;20.482;2022-12-29T04:13:26;98.53;;;40.55;;
21152;SDS011;10734;44.792;20.482;2022-12-29T04:15:53;71.22;;;33.17;;
21152;SDS011;10734;44.792;20.482;2022-12-29T04:18:19;65.55;;;29.65;;
21152;SDS011;10734;44.792;20.482;2022-12-29T04:20:46;61.83;;;25.17;;
21152;SDS011;10734;44.792;20.482;2022-12-29T04:23:38;93.47;;;50.33;;
21152;SDS011;10734;44.792;20.482;2022-12-29T04:26:05;58.10;;;27.65;;
21152;SDS011;10734;44.792;20.482;2022-12-29T04:28:35;45.50;;;22.92;;
21152;SDS011;10734;44.792;20.482;2022-12-29T04:31:02;42.38;;;22.35;;
21152;SDS011;10734;44.792;20.482;2022-12-29T04:33:29;42.25;;;21.50;;
21152;SDS011;10734;44.792;20.482;2022-12-29T04:35:55;43.50;;;19.98;;
21152;SDS011;10734;44.792;20.482;2022-12-29T04:38:22;40.25;;;20.73;;
21152;SDS011;10734;44.792;20.482;2022-12-29T04:40:50;36.70;;;19.27;;
21152;SDS011;10734;44.792;20.482;2022-12-29T04:43:16;29.25;;;18.35;;
21152;SDS011;10734;44.792;20.482;2022-12-29T04:45:45;36.33;;;17.95;;
21152;SDS011;10734;44.792;20.482;2022-12-29T04:48:12;34.78;;;18.73;;
21152;SDS011;10734;44.792;20.482;2022-12-29T04:50:39;32.35;;;17.90;;
21152;SDS011;10734;44.792;20.482;2022-12-29T04:53:06;31.30;;;17.73;;
21152;SDS011;10734;44.792;20.482;2022-12-29T04:55:32;30.30;;;17.15;;
21152;SDS011;10734;44.792;20.482;2022-12-29T04:57:59;36.53;;;16.88;;
21152;SDS011;10734;44.792;20.482;2022-12-29T05:00:26;35.65;;;19.55;;
21152;SDS011;10734;44.792;20.482;2022-12-29T05:02:52;38.20;;;19.48;;
21152;SDS011;10734;44.792;20.482;2022-12-29T05:05:19;35.70;;;18.52;;
21152;SDS011;10734;44.792;20.482;2022-12-29T05:07:45;30.25;;;17.42;;
21152;SDS011;10734;44.792;20.482;2022-12-29T05:10:12;35.72;;;18.33;;
21152;SDS011;10734;44.792;20.482;2022-12-29T05:12:39;36.92;;;18.08;;
21152;SDS011;10734;44.792;20.482;2022-12-29T05:15:06;38.67;;;18.40;;
21152;SDS011;10734;44.792;20.482;2022-12-29T05:17:33;32.72;;;17.98;;
21152;SDS011;10734;44.792;20.482;2022-12-29T05:19:59;29.00;;;16.92;;
21152;SDS011;10734;44.792;20.482;2022-12-29T05:22:26;33.65;;;16.83;;
21152;SDS011;10734;44.792;20.482;2022-12-29T05:24:53;31.83;;;16.58;;
21152;SDS011;10734;44.792;20.482;2022-12-29T05:27:19;29.27;;;17.20;;
21152;SDS011;10734;44.792;20.482;2022-12-29T05:29:45;29.55;;;16.60;;
21152;SDS011;10734;44.792;20.482;2022-12-29T05:32:12;35.53;;;17.98;;
21152;SDS011;10734;44.792;20.482;2022-12-29T05:34:39;32.97;;;17.10;;
21152;SDS011;10734;44.792;20.482;2022-12-29T05:37:06;31.20;;;17.63;;
21152;SDS011;10734;44.792;20.482;2022-12-29T05:39:32;33.85;;;17.85;;
21152;SDS011;10734;44.792;20.482;2022-12-29T05:41:59;33.30;;;17.65;;
21152;SDS011;10734;44.792;20.482;2022-12-29T05:44:25;31.30;;;17.10;;
21152;SDS011;10734;44.792;20.482;2022-12-29T05:46:52;28.95;;;15.45;;
21152;SDS011;10734;44.792;20.482;2022-12-29T05:49:19;36.10;;;18.77;;
21152;SDS011;10734;44.792;20.482;2022-12-29T05:51:45;39.40;;;17.90;;
21152;SDS011;10734;44.792;20.482;2022-12-29T05:54:12;37.38;;;19.35;;
21152;SDS011;10734;44.792;20.482;2022-12-29T05:56:38;37.00;;;18.88;;
21152;SDS011;10734;44.792;20.482;2022-12-29T05:59:04;32.35;;;18.15;;
21152;SDS011;10734;44.792;20.482;2022-12-29T06:01:31;39.40;;;19.40;;
21152;SDS011;10734;44.792;20.482;2022-12-29T06:03:58;49.35;;;21.70;;
21152;SDS011;10734;44.792;20.482;2022-12-29T06:06:24;38.38;;;19.83;;
21152;SDS011;10734;44.792;20.482;2022-12-29T06:08:51;39.80;;;21.35;;
21152;SDS011;10734;44.792;20.482;2022-12-29T06:11:18;47.38;;;22.50;;
21152;SDS011;10734;44.792;20.482;2022-12-29T06:13:44;44.05;;;23.85;;
21152;SDS011;10734;44.792;20.482;2022-12-29T06:16:11;50.38;;;22.92;;
21152;SDS011;10734;44.792;20.482;2022-12-29T06:18:37;47.50;;;22.15;;
21152;SDS011;10734;44.792;20.482;2022-12-29T06:21:04;60.40;;;24.85;;
21152;SDS011;10734;44.792;20.482;2022-12-29T06:23:31;46.45;;;22.63;;
21152;SDS011;10734;44.792;20.482;2022-12-29T06:25:58;56.00;;;25.58;;
21152;SDS011;10734;44.792;20.482;2022-12-29T06:28:24;50.97;;;24.63;;
21152;SDS011;10734;44.792;20.482;2022-12-29T06:30:51;53.20;;;23.05;;
21152;SDS011;10734;44.792;20.482;2022-12-29T06:33:17;50.78;;;24.88;;
21152;SDS011;10734;44.792;20.482;2022-12-29T06:35:43;45.92;;;23.27;;
21152;SDS011;10734;44.792;20.482;2022-12-29T06:38:12;48.95;;;23.13;;
21152;SDS011;10734;44.792;20.482;2022-12-29T06:40:38;59.80;;;22.17;;
21152;SDS011;10734;44.792;20.482;2022-12-29T06:43:05;47.10;;;23.65;;
21152;SDS011;10734;44.792;20.482;2022-12-29T06:45:32;51.53;;;23.67;;
21152;SDS011;10734;44.792;20.482;2022-12-29T06:47:59;51.08;;;25.10;;
21152;SDS011;10734;44.792;20.482;2022-12-29T06:50:25;62.55;;;26.08;;
21152;SDS011;10734;44.792;20.482;2022-12-29T06:52:52;78.38;;;36.22;;
21152;SDS011;10734;44.792;20.482;2022-12-29T06:55:18;73.25;;;31.95;;
21152;SDS011;10734;44.792;20.482;2022-12-29T06:57:44;61.63;;;30.30;;
21152;SDS011;10734;44.792;20.482;2022-12-29T07:00:11;69.70;;;32.15;;
21152;SDS011;10734;44.792;20.482;2022-12-29T07:02:44;66.93;;;32.65;;
21152;SDS011;10734;44.792;20.482;2022-12-29T07:05:11;63.22;;;32.28;;
21152;SDS011;10734;44.792;20.482;2022-12-29T07:07:37;83.13;;;40.05;;
21152;SDS011;10734;44.792;20.482;2022-12-29T07:10:04;83.80;;;39.05;;
21152;SDS011;10734;44.792;20.482;2022-12-29T07:12:30;77.90;;;35.35;;
21152;SDS011;10734;44.792;20.482;2022-12-29T07:14:57;69.57;;;34.15;;
21152;SDS011;10734;44.792;20.482;2022-12-29T07:17:23;78.45;;;35.65;;
21152;SDS011;10734;44.792;20.482;2022-12-29T07:19:50;77.68;;;35.30;;
21152;SDS011;10734;44.792;20.482;2022-12-29T07:22:16;73.60;;;33.17;;
21152;SDS011;10734;44.792;20.482;2022-12-29T07:24:43;67.65;;;31.95;;
21152;SDS011;10734;44.792;20.482;2022-12-29T07:27:09;77.53;;;35.95;;
21152;SDS011;10734;44.792;20.482;2022-12-29T07:29:36;82.85;;;38.28;;
21152;SDS011;10734;44.792;20.482;2022-12-29T07:32:03;77.05;;;36.42;;
21152;SDS011;10734;44.792;20.482;2022-12-29T07:34:29;84.10;;;37.25;;
21152;SDS011;10734;44.792;20.482;2022-12-29T07:36:56;85.90;;;37.42;;
21152;SDS011;10734;44.792;20.482;2022-12-29T07:39:22;76.50;;;36.83;;
21152;SDS011;10734;44.792;20.482;2022-12-29T07:41:49;78.35;;;36.53;;
21152;SDS011;10734;44.792;20.482;2022-12-29T07:44:15;82.15;;;34.53;;
21152;SDS011;10734;44.792;20.482;2022-12-29T07:46:42;90.78;;;39.60;;
21152;SDS011;10734;44.792;20.482;2022-12-29T07:49:22;86.03;;;36.67;;
21152;SDS011;10734;44.792;20.482;2022-12-29T07:51:48;70.72;;;33.90;;
21152;SDS011;10734;44.792;20.482;2022-12-29T07:54:15;63.38;;;30.00;;
21152;SDS011;10734;44.792;20.482;2022-12-29T07:56:45;48.88;;;24.98;;
21152;SDS011;10734;44.792;20.482;2022-12-29T07:59:11;53.20;;;27.67;;
21152;SDS011;10734;44.792;20.482;2022-12-29T08:01:38;52.17;;;26.33;;
21152;SDS011;10734;44.792;20.482;2022-12-29T08:04:05;47.75;;;26.48;;
21152;SDS011;10734;44.792;20.482;2022-12-29T08:06:32;46.80;;;23.88;;
21152;SDS011;10734;44.792;20.482;2022-12-29T08:08:59;48.85;;;24.20;;
21152;SDS011;10734;44.792;20.482;2022-12-29T08:11:38;51.17;;;23.02;;
21152;SDS011;10734;44.792;20.482;2022-12-29T08:14:06;46.80;;;22.98;;
21152;SDS011;10734;44.792;20.482;2022-12-29T08:16:33;46.10;;;22.25;;
21152;SDS011;10734;44.792;20.482;2022-12-29T08:19:00;44.75;;;21.77;;
21152;SDS011;10734;44.792;20.482;2022-12-29T08:21:26;53.03;;;22.83;;
21152;SDS011;10734;44.792;20.482;2022-12-29T08:23:53;41.95;;;21.83;;
21152;SDS011;10734;44.792;20.482;2022-12-29T08:26:20;51.45;;;22.60;;
21152;SDS011;10734;44.792;20.482;2022-12-29T08:28:47;49.92;;;24.40;;
21152;SDS011;10734;44.792;20.482;2022-12-29T08:31:13;42.05;;;22.55;;
21152;SDS011;10734;44.792;20.482;2022-12-29T08:33:40;42.60;;;23.10;;
21152;SDS011;10734;44.792;20.482;2022-12-29T08:36:07;45.33;;;24.15;;
21152;SDS011;10734;44.792;20.482;2022-12-29T08:38:34;39.33;;;23.13;;
21152;SDS011;10734;44.792;20.482;2022-12-29T08:41:01;47.05;;;25.67;;
21152;SDS011;10734;44.792;20.482;2022-12-29T08:43:28;44.53;;;22.90;;
21152;SDS011;10734;44.792;20.482;2022-12-29T08:45:56;43.63;;;21.85;;
21152;SDS011;10734;44.792;20.482;2022-12-29T08:48:25;44.38;;;22.30;;
21152;SDS011;10734;44.792;20.482;2022-12-29T08:50:52;40.78;;;20.23;;
21152;SDS011;10734;44.792;20.482;2022-12-29T08:53:20;41.92;;;20.25;;
21152;SDS011;10734;44.792;20.482;2022-12-29T08:55:47;37.63;;;18.75;;
21152;SDS011;10734;44.792;20.482;2022-12-29T08:58:26;35.55;;;20.73;;
21152;SDS011;10734;44.792;20.482;2022-12-29T09:00:53;46.00;;;20.80;;
21152;SDS011;10734;44.792;20.482;2022-12-29T09:03:22;42.40;;;22.15;;
21152;SDS011;10734;44.792;20.482;2022-12-29T09:06:12;38.13;;;21.83;;
21152;SDS011;10734;44.792;20.482;2022-12-29T09:08:41;42.25;;;22.73;;
21152;SDS011;10734;44.792;20.482;2022-12-29T09:11:13;40.88;;;21.25;;
21152;SDS011;10734;44.792;20.482;2022-12-29T09:13:42;40.22;;;22.52;;
21152;SDS011;10734;44.792;20.482;2022-12-29T09:16:09;36.63;;;21.38;;
21152;SDS011;10734;44.792;20.482;2022-12-29T09:18:36;40.67;;;23.73;;
21152;SDS011;10734;44.792;20.482;2022-12-29T09:21:04;44.75;;;24.48;;
21152;SDS011;10734;44.792;20.482;2022-12-29T09:23:33;44.65;;;22.00;;
21152;SDS011;10734;44.792;20.482;2022-12-29T09:26:00;37.00;;;20.85;;
21152;SDS011;10734;44.792;20.482;2022-12-29T09:28:27;32.45;;;19.40;;
21152;SDS011;10734;44.792;20.482;2022-12-29T09:30:56;32.33;;;17.90;;
21152;SDS011;10734;44.792;20.482;2022-12-29T09:33:24;34.25;;;17.30;;
21152;SDS011;10734;44.792;20.482;2022-12-29T09:35:53;31.23;;;18.50;;
21152;SDS011;10734;44.792;20.482;2022-12-29T09:38:22;31.98;;;17.40;;
21152;SDS011;10734;44.792;20.482;2022-12-29T09:40:51;29.08;;;16.77;;
21152;SDS011;10734;44.792;20.482;2022-12-29T09:46:01;25.83;;;15.60;;
21152;SDS011;10734;44.792;20.482;2022-12-29T09:48:31;41.80;;;19.33;;
21152;SDS011;10734;44.792;20.482;2022-12-29T09:51:06;30.75;;;17.83;;
21152;SDS011;10734;44.792;20.482;2022-12-29T09:53:38;24.73;;;13.73;;
21152;SDS011;10734;44.792;20.482;2022-12-29T09:56:12;17.73;;;9.83;;
21152;SDS011;10734;44.792;20.482;2022-12-29T09:58:48;15.65;;;9.38;;
21152;SDS011;10734;44.792;20.482;2022-12-29T10:03:57;10.30;;;7.03;;
21152;SDS011;10734;44.792;20.482;2022-12-29T10:06:29;11.73;;;7.65;;
21152;SDS011;10734;44.792;20.482;2022-12-29T10:24:15;13.07;;;5.57;;
21152;SDS011;10734;44.792;20.482;2022-12-29T10:26:45;8.55;;;5.25;;
21152;SDS011;10734;44.792;20.482;2022-12-29T10:29:18;8.85;;;5.28;;
21152;SDS011;10734;44.792;20.482;2022-12-29T10:34:39;9.60;;;5.97;;
21152;SDS011;10734;44.792;20.482;2022-12-29T10:37:20;16.88;;;7.60;;
21152;SDS011;10734;44.792;20.482;2022-12-29T10:40:14;11.70;;;7.05;;
21152;SDS011;10734;44.792;20.482;2022-12-29T10:42:47;10.98;;;7.22;;
21152;SDS011;10734;44.792;20.482;2022-12-29T10:45:19;11.07;;;5.65;;
21152;SDS011;10734;44.792;20.482;2022-12-29T10:48:00;7.63;;;5.25;;
21152;SDS011;10734;44.792;20.482;2022-12-29T10:50:31;16.15;;;4.78;;
21152;SDS011;10734;44.792;20.482;2022-12-29T10:53:00;8.95;;;3.67;;
21152;SDS011;10734;44.792;20.482;2022-12-29T10:55:32;6.63;;;4.35;;
21152;SDS011;10734;44.792;20.482;2022-12-29T10:58:04;7.13;;;4.10;;
21152;SDS011;10734;44.792;20.482;2022-12-29T11:00:33;5.93;;;3.45;;
21152;SDS011;10734;44.792;20.482;2022-12-29T11:08:37;9.65;;;3.88;;
21152;SDS011;10734;44.792;20.482;2022-12-29T11:11:08;5.00;;;3.47;;
21152;SDS011;10734;44.792;20.482;2022-12-29T11:13:47;7.85;;;4.20;;
21152;SDS011;10734;44.792;20.482;2022-12-29T11:16:14;8.82;;;4.57;;
21152;SDS011;10734;44.792;20.482;2022-12-29T11:18:41;9.52;;;3.63;;
21152;SDS011;10734;44.792;20.482;2022-12-29T11:26:45;5.65;;;3.70;;
21152;SDS011;10734;44.792;20.482;2022-12-29T11:34:24;3.70;;;2.70;;
21152;SDS011;10734;44.792;20.482;2022-12-29T11:36:58;6.50;;;3.90;;
21152;SDS011;10734;44.792;20.482;2022-12-29T11:39:30;4.95;;;3.13;;
21152;SDS011;10734;44.792;20.482;2022-12-29T11:42:00;4.15;;;2.85;;
21152;SDS011;10734;44.792;20.482;2022-12-29T11:44:31;4.93;;;3.20;;
21152;SDS011;10734;44.792;20.482;2022-12-29T11:47:03;6.15;;;2.60;;
21152;SDS011;10734;44.792;20.482;2022-12-29T11:49:34;5.57;;;3.00;;
21152;SDS011;10734;44.792;20.482;2022-12-29T11:52:01;4.05;;;2.83;;
21152;SDS011;10734;44.792;20.482;2022-12-29T11:54:32;7.22;;;2.95;;
21152;SDS011;10734;44.792;20.482;2022-12-29T11:57:35;3.95;;;2.67;;
21152;SDS011;10734;44.792;20.482;2022-12-29T11:59:55;6.30;;;2.50;;
21152;SDS011;10734;44.792;20.482;2022-12-29T12:07:44;7.72;;;3.63;;
21152;SDS011;10734;44.792;20.482;2022-12-29T12:10:19;5.28;;;2.80;;
21152;SDS011;10734;44.792;20.482;2022-12-29T12:15:44;5.97;;;3.72;;
21152;SDS011;10734;44.792;20.482;2022-12-29T12:21:06;7.05;;;2.70;;
21152;SDS011;10734;44.792;20.482;2022-12-29T12:27:09;4.43;;;3.05;;
21152;SDS011;10734;44.792;20.482;2022-12-29T12:29:52;7.47;;;3.75;;
21152;SDS011;10734;44.792;20.482;2022-12-29T12:43:39;11.18;;;3.90;;
21152;SDS011;10734;44.792;20.482;2022-12-29T13:14:10;5.82;;;3.63;;
21152;SDS011;10734;44.792;20.482;2022-12-29T13:19:22;5.50;;;3.95;;
21152;SDS011;10734;44.792;20.482;2022-12-29T13:22:01;6.72;;;3.70;;
21152;SDS011;10734;44.792;20.482;2022-12-29T13:40:58;6.35;;;4.30;;
21152;SDS011;10734;44.792;20.482;2022-12-29T13:43:28;9.70;;;4.80;;
21152;SDS011;10734;44.792;20.482;2022-12-29T13:45:59;9.05;;;5.88;;
21152;SDS011;10734;44.792;20.482;2022-12-29T13:48:52;13.30;;;7.45;;
21152;SDS011;10734;44.792;20.482;2022-12-29T13:51:26;23.10;;;9.05;;
21152;SDS011;10734;44.792;20.482;2022-12-29T13:56:31;15.55;;;8.02;;
21152;SDS011;10734;44.792;20.482;2022-12-29T13:59:08;17.52;;;9.90;;
21152;SDS011;10734;44.792;20.482;2022-12-29T14:04:22;18.08;;;10.38;;
21152;SDS011;10734;44.792;20.482;2022-12-29T14:07:00;15.70;;;7.07;;
21152;SDS011;10734;44.792;20.482;2022-12-29T14:12:30;15.45;;;8.20;;
21152;SDS011;10734;44.792;20.482;2022-12-29T14:15:03;21.85;;;10.02;;
21152;SDS011;10734;44.792;20.482;2022-12-29T14:17:34;19.13;;;8.50;;
21152;SDS011;10734;44.792;20.482;2022-12-29T14:20:01;20.27;;;9.25;;
21152;SDS011;10734;44.792;20.482;2022-12-29T14:22:31;27.92;;;9.65;;
21152;SDS011;10734;44.792;20.482;2022-12-29T14:24:59;16.27;;;9.55;;
21152;SDS011;10734;44.792;20.482;2022-12-29T14:29:56;22.75;;;10.45;;
21152;SDS011;10734;44.792;20.482;2022-12-29T14:34:53;20.80;;;11.65;;
21152;SDS011;10734;44.792;20.482;2022-12-29T14:37:26;23.50;;;12.38;;
21152;SDS011;10734;44.792;20.482;2022-12-29T14:42:52;37.30;;;16.95;;
21152;SDS011;10734;44.792;20.482;2022-12-29T14:45:26;36.38;;;17.70;;
21152;SDS011;10734;44.792;20.482;2022-12-29T14:47:59;29.40;;;16.08;;
21152;SDS011;10734;44.792;20.482;2022-12-29T14:50:38;42.10;;;16.40;;
21152;SDS011;10734;44.792;20.482;2022-12-29T14:53:10;37.50;;;18.40;;
21152;SDS011;10734;44.792;20.482;2022-12-29T14:56:10;46.60;;;20.20;;
21152;SDS011;10734;44.792;20.482;2022-12-29T14:58:51;37.83;;;20.52;;
21152;SDS011;10734;44.792;20.482;2022-12-29T15:01:22;52.78;;;24.17;;
21152;SDS011;10734;44.792;20.482;2022-12-29T15:03:59;40.08;;;21.23;;
21152;SDS011;10734;44.792;20.482;2022-12-29T15:06:32;40.03;;;19.85;;
21152;SDS011;10734;44.792;20.482;2022-12-29T15:11:48;44.35;;;23.75;;
21152;SDS011;10734;44.792;20.482;2022-12-29T15:16:57;46.17;;;23.42;;
21152;SDS011;10734;44.792;20.482;2022-12-29T15:19:25;38.92;;;22.08;;
21152;SDS011;10734;44.792;20.482;2022-12-29T15:21:52;46.45;;;23.27;;
21152;SDS011;10734;44.792;20.482;2022-12-29T15:24:19;47.88;;;24.45;;
21152;SDS011;10734;44.792;20.482;2022-12-29T15:26:47;57.53;;;26.30;;
21152;SDS011;10734;44.792;20.482;2022-12-29T15:29:29;51.30;;;27.40;;
21152;SDS011;10734;44.792;20.482;2022-12-29T15:31:57;51.42;;;26.52;;
21152;SDS011;10734;44.792;20.482;2022-12-29T15:34:29;56.65;;;29.52;;
21152;SDS011;10734;44.792;20.482;2022-12-29T15:36:56;52.38;;;28.17;;
21152;SDS011;10734;44.792;20.482;2022-12-29T15:39:30;62.55;;;29.98;;
21152;SDS011;10734;44.792;20.482;2022-12-29T15:41:59;63.65;;;31.60;;
21152;SDS011;10734;44.792;20.482;2022-12-29T15:44:29;61.63;;;29.77;;
21152;SDS011;10734;44.792;20.482;2022-12-29T15:47:01;61.50;;;31.70;;
21152;SDS011;10734;44.792;20.482;2022-12-29T15:49:28;57.35;;;30.23;;
21152;SDS011;10734;44.792;20.482;2022-12-29T15:51:57;59.50;;;31.65;;
21152;SDS011;10734;44.792;20.482;2022-12-29T15:54:24;63.33;;;32.83;;
21152;SDS011;10734;44.792;20.482;2022-12-29T15:56:53;72.00;;;32.60;;
21152;SDS011;10734;44.792;20.482;2022-12-29T15:59:23;50.78;;;30.55;;
21152;SDS011;10734;44.792;20.482;2022-12-29T16:01:51;75.57;;;35.45;;
21152;SDS011;10734;44.792;20.482;2022-12-29T16:04:18;69.35;;;35.22;;
21152;SDS011;10734;44.792;20.482;2022-12-29T16:06:53;88.03;;;45.75;;
21152;SDS011;10734;44.792;20.482;2022-12-29T16:12:21;94.47;;;49.42;;
21152;SDS011;10734;44.792;20.482;2022-12-29T16:15:05;94.40;;;48.30;;
21152;SDS011;10734;44.792;20.482;2022-12-29T16:17:33;90.80;;;44.70;;
21152;SDS011;10734;44.792;20.482;2022-12-29T16:20:23;84.55;;;43.72;;
21152;SDS011;10734;44.792;20.482;2022-12-29T16:22:49;90.88;;;41.85;;
21152;SDS011;10734;44.792;20.482;2022-12-29T16:27:46;79.93;;;38.55;;
21152;SDS011;10734;44.792;20.482;2022-12-29T16:30:21;81.30;;;39.90;;
21152;SDS011;10734;44.792;20.482;2022-12-29T16:32:57;82.30;;;38.83;;
21152;SDS011;10734;44.792;20.482;2022-12-29T16:35:27;85.57;;;42.03;;
21152;SDS011;10734;44.792;20.482;2022-12-29T16:40:37;101.00;;;50.88;;
21152;SDS011;10734;44.792;20.482;2022-12-29T16:43:04;100.18;;;45.05;;
21152;SDS011;10734;44.792;20.482;2022-12-29T16:50:31;75.57;;;38.00;;
21152;SDS011;10734;44.792;20.482;2022-12-29T16:52:59;70.75;;;35.67;;
21152;SDS011;10734;44.792;20.482;2022-12-29T16:55:26;76.63;;;35.47;;
21152;SDS011;10734;44.792;20.482;2022-12-29T16:57:53;65.72;;;34.47;;
21152;SDS011;10734;44.792;20.482;2022-12-29T17:00:26;72.90;;;36.47;;
21152;SDS011;10734;44.792;20.482;2022-12-29T17:02:57;65.13;;;35.83;;
21152;SDS011;10734;44.792;20.482;2022-12-29T17:05:24;62.47;;;34.45;;
21152;SDS011;10734;44.792;20.482;2022-12-29T17:07:51;57.47;;;29.80;;
21152;SDS011;10734;44.792;20.482;2022-12-29T17:10:19;53.13;;;27.23;;
21152;SDS011;10734;44.792;20.482;2022-12-29T17:12:47;51.25;;;27.40;;
21152;SDS011;10734;44.792;20.482;2022-12-29T17:15:25;64.93;;;34.00;;
21152;SDS011;10734;44.792;20.482;2022-12-29T17:17:53;54.63;;;30.10;;
21152;SDS011;10734;44.792;20.482;2022-12-29T17:20:28;50.78;;;26.10;;
21152;SDS011;10734;44.792;20.482;2022-12-29T17:22:56;44.45;;;21.58;;
21152;SDS011;10734;44.792;20.482;2022-12-29T17:25:32;41.72;;;21.70;;
21152;SDS011;10734;44.792;20.482;2022-12-29T17:28:03;40.78;;;21.20;;
21152;SDS011;10734;44.792;20.482;2022-12-29T17:30:31;57.97;;;30.08;;
21152;SDS011;10734;44.792;20.482;2022-12-29T17:33:01;47.78;;;24.73;;
21152;SDS011;10734;44.792;20.482;2022-12-29T17:35:28;53.78;;;26.90;;
21152;SDS011;10734;44.792;20.482;2022-12-29T17:37:55;59.80;;;28.95;;
21152;SDS011;10734;44.792;20.482;2022-12-29T17:40:29;55.78;;;26.35;;
21152;SDS011;10734;44.792;20.482;2022-12-29T17:42:58;49.67;;;26.63;;
21152;SDS011;10734;44.792;20.482;2022-12-29T17:45:26;62.55;;;31.52;;
21152;SDS011;10734;44.792;20.482;2022-12-29T17:47:53;52.08;;;27.55;;